createdAt,value
2022-11-06T00:01:11.658Z,101465.94
2022-11-06T00:03:40.922Z,101473.88
2022-11-06T00:06:28.038Z,101469.91
2022-11-06T00:08:57.653Z,101484.03
2022-11-06T00:11:24.123Z,101486.91
2022-11-06T00:13:52.704Z,101495.31
2022-11-06T00:16:21.670Z,101472.75
2022-11-06T00:18:48.984Z,101477.50
2022-11-06T00:21:19.394Z,101472.03
2022-11-06T00:23:47.197Z,101476.75
2022-11-06T00:26:16.842Z,101467.72
2022-11-06T00:28:43.912Z,101472.28
2022-11-06T00:31:13.712Z,101457.94
2022-11-06T00:33:40.634Z,101468.69
2022-11-06T00:36:09.712Z,101461.34
2022-11-06T00:38:36.248Z,101464.34
2022-11-06T00:41:14.417Z,101464.84
2022-11-06T00:43:41.846Z,101466.56
2022-11-06T00:46:11.396Z,101463.22
2022-11-06T00:48:42.240Z,101454.72
2022-11-06T00:51:14.663Z,101469.19
2022-11-06T00:53:41.876Z,101463.13
2022-11-06T00:56:16.502Z,101465.88
2022-11-06T00:58:46.007Z,101464.13
2022-11-06T01:01:15.784Z,101457.81
2022-11-06T01:03:46.608Z,101455.22
2022-11-06T01:06:19.998Z,101454.25
2022-11-06T01:08:47.646Z,101456.19
2022-11-06T01:11:20.228Z,101459.06
2022-11-06T01:13:53.065Z,101456.50
2022-11-06T01:16:20.098Z,101462.91
2022-11-06T01:18:49.587Z,101457.47
2022-11-06T01:21:32.319Z,101444.84
2022-11-06T01:24:01.529Z,101435.56
2022-11-06T01:26:38.361Z,101427.75
2022-11-06T01:29:10.265Z,101439.47
2022-11-06T01:31:37.026Z,101433.66
2022-11-06T01:34:04.070Z,101433.25
2022-11-06T01:36:31.159Z,101434.56
2022-11-06T01:39:02.124Z,101419.97
2022-11-06T01:41:31.791Z,101433.06
2022-11-06T01:44:09.427Z,101435.53
2022-11-06T01:46:36.701Z,101435.28
2022-11-06T01:49:14.062Z,101427.84
2022-11-06T01:51:49.807Z,101421.53
2022-11-06T01:54:17.391Z,101420.97
2022-11-06T01:56:46.809Z,101427.31
2022-11-06T01:59:17.589Z,101425.56
2022-11-06T02:01:44.653Z,101430.03
2022-11-06T02:04:17.110Z,101405.03
2022-11-06T02:06:45.244Z,101406.63
2022-11-06T02:09:12.266Z,101411.09
2022-11-06T02:11:41.943Z,101396.59
2022-11-06T02:14:18.921Z,101414.16
2022-11-06T02:16:52.922Z,101408.56
2022-11-06T02:19:47.791Z,101405.72
2022-11-06T02:22:44.944Z,101406.44
2022-11-06T02:25:27.541Z,101386.63
2022-11-06T02:28:03.477Z,101378.56
2022-11-06T02:30:36.788Z,101379.16
2022-11-06T02:33:12.431Z,101382.91
2022-11-06T02:35:45.055Z,101392.94
2022-11-06T02:38:16.505Z,101382.16
2022-11-06T02:40:48.135Z,101374.72
2022-11-06T02:43:16.913Z,101366.56
2022-11-06T02:45:55.666Z,101354.75
2022-11-06T02:48:28.985Z,101373.31
2022-11-06T02:50:59.107Z,101370.47
2022-11-06T02:53:27.756Z,101367.72
2022-11-06T02:56:00.090Z,101365.41
2022-11-06T02:58:46.149Z,101374.03
2022-11-06T03:01:31.073Z,101367.72
2022-11-06T03:04:05.673Z,101366.25
2022-11-06T03:07:02.456Z,101381.38
2022-11-06T03:09:32.162Z,101378.03
2022-11-06T03:12:17.561Z,101378.50
2022-11-06T03:14:55.852Z,101389.53
2022-11-06T03:17:38.397Z,101384.81
2022-11-06T03:20:18.786Z,101384.53
2022-11-06T03:22:54.189Z,101363.75
2022-11-06T03:25:44.178Z,101365.47
2022-11-06T03:28:25.362Z,101341.44
2022-11-06T03:30:56.242Z,101349.09
2022-11-06T03:33:44.024Z,101346.25
2022-11-06T03:36:19.772Z,101334.03
2022-11-06T03:39:02.696Z,101343.50
2022-11-06T03:41:42.138Z,101331.31
2022-11-06T03:44:13.497Z,101333.88
2022-11-06T03:46:50.543Z,101332.16
2022-11-06T03:49:25.098Z,101316.78
2022-11-06T03:52:00.155Z,101326.16
2022-11-06T03:54:34.660Z,101325.00
2022-11-06T03:57:07.952Z,101302.59
2022-11-06T03:59:42.365Z,101310.38
2022-11-06T04:02:10.477Z,101312.00
2022-11-06T04:04:51.995Z,101306.94
2022-11-06T04:07:26.878Z,101304.22
2022-11-06T04:10:17.913Z,101315.84
2022-11-06T04:13:08.202Z,101304.34
2022-11-06T04:15:47.689Z,101307.53
2022-11-06T04:18:18.157Z,101297.03
2022-11-06T04:21:35.385Z,101287.09
2022-11-06T04:25:02.666Z,101290.84
2022-11-06T04:27:31.899Z,101285.66
2022-11-06T04:30:01.528Z,101283.34
2022-11-06T04:33:05.599Z,101279.59
2022-11-06T04:35:35.251Z,101274.66
2022-11-06T04:38:23.107Z,101269.75
2022-11-06T04:41:02.785Z,101268.59
2022-11-06T04:43:55.814Z,101265.66
2022-11-06T04:46:28.959Z,101262.72
2022-11-06T04:48:56.161Z,101272.50
2022-11-06T04:51:26.854Z,101261.56
2022-11-06T04:53:54.186Z,101275.75
2022-11-06T04:56:30.063Z,101262.53
2022-11-06T04:59:00.610Z,101261.81
2022-11-06T05:01:32.562Z,101269.41
2022-11-06T05:03:59.435Z,101258.19
2022-11-06T05:06:29.963Z,101262.47
2022-11-06T05:08:58.306Z,101255.00
2022-11-06T05:11:25.083Z,101257.41
2022-11-06T05:13:54.287Z,101259.41
2022-11-06T05:16:23.174Z,101251.06
2022-11-06T05:18:49.779Z,101245.22
2022-11-06T05:21:34.946Z,101238.91
2022-11-06T05:24:01.846Z,101237.91
2022-11-06T05:26:30.597Z,101239.91
2022-11-06T05:28:57.159Z,101238.03
2022-11-06T05:31:24.227Z,101248.25
2022-11-06T05:33:50.785Z,101253.19
2022-11-06T05:36:19.722Z,101242.88
2022-11-06T05:38:51.910Z,101244.34
2022-11-06T05:41:18.492Z,101228.53
2022-11-06T05:43:45.265Z,101237.03
2022-11-06T05:46:35.632Z,101232.44
2022-11-06T05:48:58.342Z,101230.47
2022-11-06T05:51:27.215Z,101225.59
2022-11-06T05:53:55.229Z,101223.47
2022-11-06T05:56:22.127Z,101219.75
2022-11-06T05:58:51.172Z,101216.16
2022-11-06T06:01:20.028Z,101221.47
2022-11-06T06:03:46.723Z,101220.22
2022-11-06T06:06:16.057Z,101190.78
2022-11-06T06:08:42.852Z,101214.34
2022-11-06T06:11:09.508Z,101206.03
2022-11-06T06:13:37.650Z,101203.75
2022-11-06T06:16:04.989Z,101206.50
2022-11-06T06:18:31.677Z,101204.34
2022-11-06T06:20:59.340Z,101196.31
2022-11-06T06:23:26.184Z,101197.44
2022-11-06T06:25:52.823Z,101202.59
2022-11-06T06:28:19.756Z,101199.16
2022-11-06T06:30:46.520Z,101196.88
2022-11-06T06:33:13.005Z,101195.06
2022-11-06T06:35:39.773Z,101200.06
2022-11-06T06:38:06.356Z,101195.50
2022-11-06T06:40:33.042Z,101203.25
2022-11-06T06:42:59.884Z,101199.91
2022-11-06T06:45:26.861Z,101210.16
2022-11-06T06:47:53.587Z,101207.16
2022-11-06T06:50:20.560Z,101207.88
2022-11-06T06:52:47.471Z,101197.44
2022-11-06T06:55:14.393Z,101201.59
2022-11-06T06:57:43.366Z,101190.25
2022-11-06T07:00:10.512Z,101173.06
2022-11-06T07:02:37.080Z,101176.38
2022-11-06T07:05:03.948Z,101175.22
2022-11-06T07:07:30.473Z,101179.13
2022-11-06T07:09:59.049Z,101178.72
2022-11-06T07:12:25.624Z,101166.63
2022-11-06T07:14:52.128Z,101166.78
2022-11-06T07:17:21.009Z,101177.72
2022-11-06T07:19:47.466Z,101169.97
2022-11-06T07:22:13.984Z,101176.84
2022-11-06T07:24:41.411Z,101167.41
2022-11-06T07:27:08.242Z,101161.66
2022-11-06T07:29:34.771Z,101162.94
2022-11-06T07:32:01.314Z,101171.81
2022-11-06T07:34:30.246Z,101171.81
2022-11-06T07:37:01.991Z,101176.16
2022-11-06T07:39:31.814Z,101171.53
2022-11-06T07:41:58.428Z,101184.63
2022-11-06T07:44:24.955Z,101176.00
2022-11-06T07:46:51.591Z,101187.34
2022-11-06T07:49:18.232Z,101170.94
2022-11-06T07:51:45.086Z,101160.59
2022-11-06T07:54:12.291Z,101160.00
2022-11-06T07:56:38.902Z,101149.09
2022-11-06T07:59:08.708Z,101162.03
2022-11-06T08:01:40.205Z,101161.00
2022-11-06T08:04:08.044Z,101156.28
2022-11-06T08:06:36.417Z,101155.25
2022-11-06T08:09:13.431Z,101155.00
2022-11-06T08:11:43.746Z,101150.25
2022-11-06T08:14:12.348Z,101160.88
2022-11-06T08:16:45.276Z,101150.84
2022-11-06T08:19:17.021Z,101158.00
2022-11-06T08:21:50.019Z,101155.28
2022-11-06T08:24:21.944Z,101152.13
2022-11-06T08:26:53.808Z,101151.69
2022-11-06T08:29:26.276Z,101140.19
2022-11-06T08:31:52.926Z,101137.84
2022-11-06T08:34:19.661Z,101132.41
2022-11-06T08:36:49.461Z,101138.13
2022-11-06T08:39:16.750Z,101124.56
2022-11-06T08:41:45.410Z,101114.63
2022-11-06T08:44:12.115Z,101098.47
2022-11-06T08:46:38.784Z,101112.69
2022-11-06T08:49:05.468Z,101101.47
2022-11-06T08:51:32.008Z,101111.03
2022-11-06T08:53:58.829Z,101116.44
2022-11-06T08:56:30.897Z,101106.72
2022-11-06T08:58:57.467Z,101094.16
2022-11-06T09:01:24.419Z,101094.00
2022-11-06T09:03:51.156Z,101073.34
2022-11-06T09:06:19.892Z,101085.38
2022-11-06T09:08:48.834Z,101074.19
2022-11-06T09:11:15.400Z,101083.03
2022-11-06T09:13:42.156Z,101075.13
2022-11-06T09:16:14.313Z,101067.19
2022-11-06T09:18:42.100Z,101052.06
2022-11-06T09:21:08.941Z,101057.53
2022-11-06T09:23:35.644Z,101059.56
2022-11-06T09:26:02.194Z,101052.69
2022-11-06T09:28:31.696Z,101047.69
2022-11-06T09:30:58.246Z,101050.06
2022-11-06T09:33:24.771Z,101044.75
2022-11-06T09:35:51.607Z,101040.66
2022-11-06T09:38:19.089Z,101042.06
2022-11-06T09:40:55.380Z,101028.53
2022-11-06T09:44:04.237Z,101037.66
2022-11-06T09:46:34.329Z,101048.81
2022-11-06T09:49:19.486Z,101033.13
2022-11-06T09:51:59.020Z,101034.75
2022-11-06T09:54:35.123Z,101038.06
2022-11-06T09:57:14.109Z,101026.91
2022-11-06T09:59:41.485Z,101030.69
2022-11-06T10:02:33.075Z,101028.31
2022-11-06T10:05:05.572Z,101034.41
2022-11-06T10:07:36.111Z,101022.88
2022-11-06T10:10:06.796Z,101027.34
2022-11-06T10:12:33.328Z,101026.00
2022-11-06T10:15:24.859Z,101017.78
2022-11-06T10:18:09.750Z,101019.38
2022-11-06T10:20:48.022Z,101013.91
2022-11-06T10:23:49.114Z,100996.78
2022-11-06T10:26:25.992Z,101008.16
2022-11-06T10:29:09.145Z,101005.94
2022-11-06T10:31:54.559Z,101007.63
2022-11-06T10:34:28.905Z,100994.25
2022-11-06T10:37:06.432Z,101003.50
2022-11-06T10:39:36.045Z,101004.69
2022-11-06T10:42:11.010Z,101000.75
2022-11-06T10:44:55.656Z,100984.13
2022-11-06T10:47:29.206Z,100983.25
2022-11-06T10:49:59.217Z,100965.44
2022-11-06T10:52:25.694Z,100980.38
2022-11-06T10:55:10.330Z,100960.94
2022-11-06T10:57:46.594Z,100962.50
2022-11-06T11:00:15.571Z,100956.84
2022-11-06T11:02:52.825Z,100954.94
2022-11-06T11:05:22.335Z,100944.16
2022-11-06T11:07:50.351Z,100943.63
2022-11-06T11:10:33.136Z,100931.78
2022-11-06T11:13:08.386Z,100930.75
2022-11-06T11:15:46.849Z,100921.28
2022-11-06T11:18:13.815Z,100928.63
2022-11-06T11:20:48.582Z,100922.94
2022-11-06T11:23:18.521Z,100922.19
2022-11-06T11:25:53.138Z,100934.00
2022-11-06T11:28:34.962Z,100930.16
2022-11-06T11:31:06.965Z,100920.59
2022-11-06T11:33:33.951Z,100913.78
2022-11-06T11:36:02.298Z,100914.53
2022-11-06T11:38:29.592Z,100905.09
2022-11-06T11:41:08.296Z,100894.69
2022-11-06T11:43:35.581Z,100889.16
2022-11-06T11:46:08.114Z,100889.78
2022-11-06T11:48:46.148Z,100892.38
2022-11-06T11:51:15.766Z,100894.22
2022-11-06T11:53:42.843Z,100893.09
2022-11-06T11:56:15.705Z,100865.50
2022-11-06T11:58:51.522Z,100880.81
2022-11-06T12:01:19.697Z,100886.34
2022-11-06T12:03:50.089Z,100874.56
2022-11-06T12:06:19.064Z,100877.50
2022-11-06T12:08:50.269Z,100873.56
2022-11-06T12:11:22.359Z,100860.19
2022-11-06T12:14:23.141Z,100850.25
2022-11-06T12:16:53.169Z,100839.31
2022-11-06T12:19:24.504Z,100841.22
2022-11-06T12:21:59.115Z,100833.34
2022-11-06T12:24:35.727Z,100834.72
2022-11-06T12:27:11.098Z,100826.47
2022-11-06T12:30:13.903Z,100829.75
2022-11-06T12:32:52.647Z,100819.63
2022-11-06T12:35:32.447Z,100806.13
2022-11-06T12:38:20.742Z,100829.59
2022-11-06T12:41:05.790Z,100824.97
2022-11-06T12:43:46.180Z,100822.53
2022-11-06T12:46:24.980Z,100812.22
2022-11-06T12:49:28.653Z,100815.50
2022-11-06T12:52:06.372Z,100817.19
2022-11-06T12:54:50.966Z,100823.03
2022-11-06T12:57:35.740Z,100811.91
2022-11-06T13:00:13.792Z,100815.88
2022-11-06T13:03:07.640Z,100810.03
2022-11-06T13:06:00.731Z,100802.53
2022-11-06T13:08:49.343Z,100804.25
2022-11-06T13:11:39.578Z,100803.56
2022-11-06T13:14:14.127Z,100798.78
2022-11-06T13:17:18.000Z,100808.91
2022-11-06T13:20:13.270Z,100814.91
2022-11-06T13:22:44.700Z,100806.69
2022-11-06T13:25:27.965Z,100803.25
2022-11-06T13:28:00.845Z,100817.34
2022-11-06T13:30:31.833Z,100803.97
2022-11-06T13:33:29.726Z,100807.22
2022-11-06T13:35:56.667Z,100808.56
2022-11-06T13:38:29.679Z,100791.28
2022-11-06T13:41:21.876Z,100788.03
2022-11-06T13:43:56.749Z,100791.13
2022-11-06T13:47:00.520Z,100795.03
2022-11-06T13:49:34.491Z,100793.09
2022-11-06T13:52:08.308Z,100792.25
2022-11-06T13:54:53.088Z,100797.03
2022-11-06T13:57:34.835Z,100803.19
2022-11-06T14:00:24.157Z,100797.84
2022-11-06T14:03:17.713Z,100799.19
2022-11-06T14:05:54.889Z,100813.72
2022-11-06T14:08:24.211Z,100812.69
2022-11-06T14:11:01.071Z,100810.91
2022-11-06T14:13:31.537Z,100798.25
2022-11-06T14:16:21.253Z,100785.53
2022-11-06T14:18:58.309Z,100788.41
2022-11-06T14:21:44.244Z,100784.28
2022-11-06T14:24:19.880Z,100771.44
2022-11-06T14:26:49.004Z,100773.63
2022-11-06T14:29:27.805Z,100777.88
2022-11-06T14:32:23.966Z,100756.63
2022-11-06T14:34:50.844Z,100771.66
2022-11-06T14:37:30.761Z,100765.13
2022-11-06T14:39:57.747Z,100765.44
2022-11-06T14:42:26.990Z,100753.13
2022-11-06T14:44:57.064Z,100737.28
2022-11-06T14:47:40.244Z,100739.84
2022-11-06T14:50:39.497Z,100740.19
2022-11-06T14:53:31.652Z,100734.66
2022-11-06T14:56:12.223Z,100732.56
2022-11-06T14:58:47.540Z,100735.63
2022-11-06T15:01:16.667Z,100741.72
2022-11-06T15:03:58.688Z,100721.38
2022-11-06T15:06:31.239Z,100734.31
2022-11-06T15:09:02.540Z,100727.31
2022-11-06T15:11:47.910Z,100708.66
2022-11-06T15:14:14.632Z,100715.44
2022-11-06T15:16:52.043Z,100707.19
2022-11-06T15:19:29.795Z,100703.75
2022-11-06T15:21:56.212Z,100703.91
2022-11-06T15:24:29.272Z,100698.91
2022-11-06T15:27:04.871Z,100690.03
2022-11-06T15:29:44.153Z,100683.81
2022-11-06T15:32:15.637Z,100687.25
2022-11-06T15:34:48.600Z,100677.78
2022-11-06T15:37:24.094Z,100674.16
2022-11-06T15:40:00.194Z,100664.00
2022-11-06T15:42:37.341Z,100681.25
2022-11-06T15:45:22.300Z,100662.06
2022-11-06T15:48:02.376Z,100671.28
2022-11-06T15:50:39.186Z,100659.25
2022-11-06T15:53:27.341Z,100652.09
2022-11-06T15:56:07.863Z,100660.91
2022-11-06T15:58:36.554Z,100654.75
2022-11-06T16:01:07.188Z,100638.69
2022-11-06T16:03:48.945Z,100633.31
2022-11-06T16:06:15.717Z,100634.16
2022-11-06T16:08:42.456Z,100621.84
2022-11-06T16:11:14.077Z,100601.66
2022-11-06T16:13:41.430Z,100607.81
2022-11-06T16:16:36.011Z,100571.03
2022-11-06T16:19:07.052Z,100583.19
2022-11-06T16:21:38.006Z,100584.91
2022-11-06T16:24:11.883Z,100582.47
2022-11-06T16:26:44.609Z,100568.00
2022-11-06T16:29:18.033Z,100575.56
2022-11-06T16:31:48.449Z,100573.19
2022-11-06T16:34:34.451Z,100569.88
2022-11-06T16:37:31.579Z,100575.66
2022-11-06T16:39:59.612Z,100577.38
2022-11-06T16:42:38.914Z,100575.41
2022-11-06T16:45:08.216Z,100571.84
2022-11-06T16:47:34.953Z,100573.72
2022-11-06T16:50:02.665Z,100558.81
2022-11-06T16:52:30.860Z,100569.56
2022-11-06T16:55:25.597Z,100569.03
2022-11-06T16:57:57.252Z,100578.34
2022-11-06T17:00:27.505Z,100562.16
2022-11-06T17:03:07.090Z,100560.59
2022-11-06T17:05:36.802Z,100557.19
2022-11-06T17:08:18.692Z,100570.97
2022-11-06T17:10:49.654Z,100584.75
2022-11-06T17:13:17.608Z,100585.19
2022-11-06T17:15:47.133Z,100583.00
2022-11-06T17:18:21.624Z,100585.88
2022-11-06T17:20:54.068Z,100582.31
2022-11-06T17:23:24.014Z,100593.38
2022-11-06T17:25:54.331Z,100562.50
2022-11-06T17:28:23.860Z,100574.44
2022-11-06T17:30:50.521Z,100575.03
2022-11-06T17:33:17.285Z,100580.03
2022-11-06T17:35:43.899Z,100580.19
2022-11-06T17:38:14.352Z,100579.50
2022-11-06T17:40:41.728Z,100572.16
2022-11-06T17:43:08.315Z,100557.75
2022-11-06T17:45:35.022Z,100576.78
2022-11-06T17:48:01.596Z,100584.94
2022-11-06T17:50:28.123Z,100586.09
2022-11-06T17:52:54.863Z,100574.78
2022-11-06T17:55:21.399Z,100594.88
2022-11-06T17:57:47.926Z,100583.66
2022-11-06T18:00:14.709Z,100583.13
2022-11-06T18:03:00.522Z,100561.88
2022-11-06T18:05:27.826Z,100570.75
2022-11-06T18:07:54.396Z,100574.50
2022-11-06T18:10:23.735Z,100571.91
2022-11-06T18:12:52.996Z,100563.59
2022-11-06T18:15:19.598Z,100573.81
2022-11-06T18:17:46.092Z,100571.91
2022-11-06T18:20:12.651Z,100552.47
2022-11-06T18:22:39.244Z,100548.69
2022-11-06T18:25:06.274Z,100543.97
2022-11-06T18:27:32.784Z,100537.34
2022-11-06T18:29:59.357Z,100535.09
2022-11-06T18:32:25.849Z,100545.53
2022-11-06T18:34:52.388Z,100531.97
2022-11-06T18:37:18.948Z,100548.94
2022-11-06T18:39:45.528Z,100534.09
2022-11-06T18:42:14.685Z,100542.97
2022-11-06T18:44:41.993Z,100547.81
2022-11-06T18:47:08.592Z,100554.25
2022-11-06T18:49:35.261Z,100545.91
2022-11-06T18:52:02.118Z,100555.97
2022-11-06T18:54:29.817Z,100550.38
2022-11-06T18:56:56.315Z,100555.66
2022-11-06T18:59:24.274Z,100554.69
2022-11-06T19:01:51.086Z,100547.25
2022-11-06T19:04:21.973Z,100536.22
2022-11-06T19:06:49.329Z,100558.41
2022-11-06T19:09:15.858Z,100560.97
2022-11-06T19:11:42.453Z,100550.69
2022-11-06T19:14:09.050Z,100557.94
2022-11-06T19:16:35.663Z,100556.53
2022-11-06T19:19:05.761Z,100561.13
2022-11-06T19:21:33.143Z,100546.50
2022-11-06T19:24:03.976Z,100556.59
2022-11-06T19:26:32.760Z,100563.94
2022-11-06T19:29:00.293Z,100562.94
2022-11-06T19:31:30.366Z,100568.38
2022-11-06T19:33:59.314Z,100561.06
2022-11-06T19:36:26.576Z,100555.47
2022-11-06T19:38:53.925Z,100560.59
2022-11-06T19:41:21.268Z,100567.22
2022-11-06T19:43:48.117Z,100567.44
2022-11-06T19:46:23.481Z,100566.44
2022-11-06T19:48:54.003Z,100572.75
2022-11-06T19:51:20.876Z,100571.59
2022-11-06T19:53:51.963Z,100557.97
2022-11-06T19:56:18.871Z,100556.97
2022-11-06T19:58:45.529Z,100565.16
2022-11-06T20:01:13.593Z,100573.47
2022-11-06T20:03:40.767Z,100574.88
2022-11-06T20:06:08.409Z,100572.84
2022-11-06T20:08:37.011Z,100579.16
2022-11-06T20:11:13.744Z,100581.50
2022-11-06T20:13:44.677Z,100590.31
2022-11-06T20:16:17.134Z,100573.94
2022-11-06T20:18:45.143Z,100592.56
2022-11-06T20:21:12.267Z,100595.16
2022-11-06T20:23:39.226Z,100574.03
2022-11-06T20:26:06.581Z,100588.38
2022-11-06T20:28:36.440Z,100591.66
2022-11-06T20:31:11.518Z,100587.94
2022-11-06T20:33:40.802Z,100593.09
2022-11-06T20:36:15.114Z,100579.06
2022-11-06T20:38:42.714Z,100594.47
2022-11-06T20:41:09.219Z,100593.47
2022-11-06T20:43:35.849Z,100595.03
2022-11-06T20:46:06.152Z,100600.19
2022-11-06T20:48:34.079Z,100598.47
2022-11-06T20:51:05.136Z,100598.00
2022-11-06T20:53:32.416Z,100602.75
2022-11-06T20:56:02.527Z,100595.88
2022-11-06T20:58:32.062Z,100603.22
2022-11-06T21:01:18.040Z,100612.16
2022-11-06T21:03:45.902Z,100617.09
2022-11-06T21:06:12.782Z,100609.22
2022-11-06T21:08:40.735Z,100615.19
2022-11-06T21:11:13.701Z,100624.38
2022-11-06T21:13:41.480Z,100633.69
2022-11-06T21:16:12.130Z,100647.84
2022-11-06T21:18:44.285Z,100636.09
2022-11-06T21:21:14.535Z,100641.94
2022-11-06T21:23:41.656Z,100643.34
2022-11-06T21:26:17.533Z,100646.94
2022-11-06T21:28:44.529Z,100631.72
2022-11-06T21:31:15.144Z,100642.03
2022-11-06T21:33:46.206Z,100652.31
2022-11-06T21:36:15.509Z,100661.06
2022-11-06T21:38:42.543Z,100661.19
2022-11-06T21:41:14.787Z,100667.50
2022-11-06T21:43:41.781Z,100677.25
2022-11-06T21:46:11.723Z,100674.53
2022-11-06T21:48:46.352Z,100676.41
2022-11-06T21:51:17.023Z,100676.88
2022-11-06T21:54:02.095Z,100677.34
2022-11-06T21:56:30.840Z,100675.22
2022-11-06T21:59:00.008Z,100685.44
2022-11-06T22:01:27.806Z,100687.31
2022-11-06T22:03:54.940Z,100680.38
2022-11-06T22:06:28.047Z,100685.66
2022-11-06T22:08:58.992Z,100675.59
2022-11-06T22:11:33.756Z,100677.78
2022-11-06T22:14:04.145Z,100655.28
2022-11-06T22:16:35.309Z,100677.19
2022-11-06T22:19:02.503Z,100682.88
2022-11-06T22:21:32.364Z,100682.56
2022-11-06T22:23:58.969Z,100682.03
2022-11-06T22:26:31.330Z,100676.50
2022-11-06T22:29:11.187Z,100678.50
2022-11-06T22:31:38.010Z,100688.84
2022-11-06T22:34:06.817Z,100691.72
2022-11-06T22:36:35.645Z,100674.81
2022-11-06T22:39:06.234Z,100681.44
2022-11-06T22:41:32.880Z,100673.16
2022-11-06T22:44:01.923Z,100676.91
2022-11-06T22:46:29.201Z,100690.94
2022-11-06T22:48:56.522Z,100701.47
2022-11-06T22:51:29.416Z,100696.72
2022-11-06T22:53:59.848Z,100694.06
2022-11-06T22:56:27.541Z,100681.28
2022-11-06T22:58:55.657Z,100691.03
2022-11-06T23:01:24.674Z,100701.50
2022-11-06T23:03:56.720Z,100693.16
2022-11-06T23:06:25.440Z,100703.13
2022-11-06T23:08:52.399Z,100693.31
2022-11-06T23:11:19.650Z,100700.03
2022-11-06T23:13:48.563Z,100713.06
2022-11-06T23:16:39.966Z,100699.72
2022-11-06T23:19:07.592Z,100722.19
2022-11-06T23:21:34.157Z,100733.66
2022-11-06T23:24:01.794Z,100718.44
2022-11-06T23:26:28.257Z,100720.41
2022-11-06T23:28:55.821Z,100723.28
2022-11-06T23:31:24.924Z,100725.63
2022-11-06T23:33:54.699Z,100729.50
2022-11-06T23:36:23.985Z,100727.09
2022-11-06T23:38:53.768Z,100733.44
2022-11-06T23:41:39.440Z,100738.00
2022-11-06T23:44:26.137Z,100730.38
2022-11-06T23:46:52.916Z,100723.03
2022-11-06T23:49:19.628Z,100716.00
2022-11-06T23:51:46.244Z,100730.22
2022-11-06T23:54:12.814Z,100728.13
2022-11-06T23:56:39.330Z,100737.47
2022-11-06T23:59:08.224Z,100735.34
